Portada
METAR-TAF:

METAR-TAF

Aeroports :

Londres Southend, Anglaterra

latitud: 51-34N, longitud: 000-42E, altitud: 15 m

Observació

L'informe es va fer fa 21 minuts, a les 10:20 UTC
Vent 10 kt del Oest
Temperatura 10°C
Humitat 71%
Pressió 1015 hPa
Visibilitat 10 km o més
Escasses núvols a una alçada de 2500 ft
Núvols disperses a una alçada de 3100 ft

METAR: EGMC 021020Z 28010KT 9999 FEW025 SCT031 10/05 Q1015

Hora: 11:41 (10:41 UTC)

Pronòstic

L'informe es va fer fa 2 hores i 44 minuts, a les 07:57 UTC
Pronòstic vàlid del 02 a les 09 UTC al 02 a les 18 UTC
Vent 10 kt del Oest
Visibilitat 10 km o més
Cel ennuvolat a una alçada de 3500 ft
Probabilitat 30% :
Temporalment
l' 02 a les 14 UTC al 02 a les 18 UTC
Visibilitat: 8000 m
xàfecs de pluja

TAF: EGMC 020757Z 0209/0218 28010KT 9999 BKN035 PROB30 TEMPO 0214/0218 8000 -SHRA

Observacions i pronòstics meteorològics de més de 4000 aeroports (METAR i TAF).

Les estacions disponibles són els punts grocs i vermells al mapa.

Posi el ratolí al punt desitjat per veure el nom de l'estació.

Feu clic per veure les observacions i els pronòstics meteorològics.

Per canviar el mapa: feu clic els botons verds amb una creu de color negre per apropar; al botó verd amb un guió per allunyar la imatge; o en les fletxes verdes per a mapes adjacents.


METAR-TAF: